Ryuhomaru — JD2639 — position and weather

sailwx.info

Track history (hours):
 
Tides and Currents Weather Stations Pressure Air Temp Water Temp Dewpoint Dewpoint Depression Visibility Wind Speed Wind Dir Waves Ship Positions

Ryuhomaru

Last reported at 2015-Mar-26 23:33 UTC. Time now 2015-Mar-26 23:44 UTC.
Position N 34°36' E 135°24'.

Length 42 m; draft 3.5 m.

Type: Tug. MMSI: 431000586.

Date/timePositionNaut miles runAvg speedWind from/ knotsBaromVisibWave heightAir tempDewpointWater temp
2015-Mar-26 23:33N 34°36' E 135°24'5 5.0
2015-Mar-26 22:33N 34°31' E 135°23'2 1.5
2015-Mar-26 21:33N 34°32' E 135°23'3 3.2
2015-Mar-26 20:33N 34°33' E 135°27'  
2015-Mar-24 07:11N 34°33' E 135°27'3 5.3
2015-Mar-24 06:33N 34°35' E 135°23'5 4.9
2015-Mar-24 05:33N 34°39' E 135°26'6 5.6
2015-Mar-24 04:33N 34°33' E 135°27'0 0.0
2015-Mar-24 03:32N 34°33' E 135°27'1 0.6
2015-Mar-24 02:33N 34°33' E 135°26'0 0.1
2015-Mar-24 01:31N 34°33' E 135°26'5 4.7
2015-Mar-24 00:33N 34°33' E 135°20'2 1.6
2015-Mar-23 23:33N 34°34' E 135°22'4 3.5
2015-Mar-23 22:32N 34°33' E 135°27'0 0.0
2015-Mar-23 09:27N 34°33' E 135°27'3 2.7
2015-Mar-23 08:32N 34°32' E 135°24'0 0.1
2015-Mar-23 02:18N 34°31' E 135°24'0 0.5
2015-Mar-23 01:33N 34°32' E 135°24'2 1.8
2015-Mar-23 00:22N 34°33' E 135°26'0 0.1
2015-Mar-22 23:31N 34°33' E 135°26'2 1.9
2015-Mar-22 22:22N 34°32' E 135°25'0 0.1
2015-Mar-22 21:33N 34°32' E 135°24'2 2.3
2015-Mar-22 20:33N 34°33' E 135°27'0 0.0
2015-Mar-22 06:33N 34°33' E 135°27'1 0.5
2015-Mar-22 05:32N 34°33' E 135°26'0 0.1
2015-Mar-22 04:33N 34°33' E 135°26'3 2.7
2015-Mar-22 03:33N 34°33' E 135°23'3 3.1
2015-Mar-22 02:32N 34°33' E 135°27'0 0.0
2015-Mar-22 01:09N 34°33' E 135°27'0 0.0
2015-Mar-22 00:28N 34°33' E 135°27'0 0.0
2015-Mar-21 23:33N 34°33' E 135°27'0 0.0
2015-Mar-21 22:32N 34°33' E 135°27'0 0.0
2015-Mar-21 07:33N 34°33' E 135°27'6 5.6
2015-Mar-21 06:34N 34°39' E 135°26'0 0.5
2015-Mar-21 05:33N 34°39' E 135°26'4 3.7
2015-Mar-21 04:33N 34°36' E 135°23'3 3.1
2015-Mar-21 03:31N 34°33' E 135°25'3 2.7
2015-Mar-21 02:33N 34°31' E 135°24'1 1.0
2015-Mar-21 01:34N 34°32' E 135°24'1 1.4
2015-Mar-21 00:33N 34°33' E 135°24'2 2.3
2015-Mar-20 23:33N 34°33' E 135°27'0 0.0
2015-Mar-19 07:34N 34°33' E 135°27'4 3.5
2015-Mar-19 06:33N 34°31' E 135°23'0 0.4
2015-Mar-19 05:32N 34°31' E 135°23'3 2.8
2015-Mar-19 04:32N 34°33' E 135°26'3 3.2
2015-Mar-19 03:31N 34°35' E 135°22'4 3.4
2015-Mar-19 02:25N 34°33' E 135°27'0 0.0
2015-Mar-19 01:14N 34°33' E 135°27'2 2.8
2015-Mar-19 00:33N 34°33' E 135°24'1 1.4
2015-Mar-18 23:31N 34°33' E 135°26'0 0.5
2015-Mar-18 22:29N 34°33' E 135°27'0 0.0
2015-Mar-18 05:18N 34°33' E 135°27'0 0.0
2015-Mar-18 04:33N 34°33' E 135°27'1 0.8
2015-Mar-18 03:14N 34°33' E 135°25'0 0.0
2015-Mar-18 02:32N 34°33' E 135°25'2 2.1
2015-Mar-18 01:29N 34°31' E 135°23'1 1.6
2015-Mar-18 00:33N 34°33' E 135°23'2 2.0
2015-Mar-17 23:33N 34°31' E 135°24'2 2.0
2015-Mar-17 22:29N 34°33' E 135°23'3 3.3
2015-Mar-17 21:33N 34°33' E 135°27'0 0.1
2015-Mar-17 20:23N 34°33' E 135°27'0 0.0
2015-Mar-17 01:21N 34°33' E 135°27'5 6.4
2015-Mar-17 00:33N 34°33' E 135°20'  
Track history (hours):
 
Tides and Currents Weather Stations Pressure Air Temp Water Temp Dewpoint Dewpoint Depression Visibility Wind Speed Wind Dir Waves Ship Positions

Ryuhomaru

Last reported at 2015-Mar-26 23:33 UTC. Time now 2015-Mar-26 23:44 UTC.
Position N 34°36' E 135°24'.

Length 42 m; draft 3.5 m.

Type: Tug. MMSI: 431000586.

Date/timePositionNaut miles runAvg speedWind from/ knotsBaromVisibWave heightAir tempDewpointWater temp
2015-Mar-26 23:33N 34°36' E 135°24'5 5.0
2015-Mar-26 22:33N 34°31' E 135°23'2 1.5
2015-Mar-26 21:33N 34°32' E 135°23'3 3.2
2015-Mar-26 20:33N 34°33' E 135°27'  
2015-Mar-24 07:11N 34°33' E 135°27'3 5.3
2015-Mar-24 06:33N 34°35' E 135°23'5 4.9
2015-Mar-24 05:33N 34°39' E 135°26'6 5.6
2015-Mar-24 04:33N 34°33' E 135°27'0 0.0
2015-Mar-24 03:32N 34°33' E 135°27'1 0.6
2015-Mar-24 02:33N 34°33' E 135°26'0 0.1
2015-Mar-24 01:31N 34°33' E 135°26'5 4.7
2015-Mar-24 00:33N 34°33' E 135°20'2 1.6
2015-Mar-23 23:33N 34°34' E 135°22'4 3.5
2015-Mar-23 22:32N 34°33' E 135°27'0 0.0
2015-Mar-23 09:27N 34°33' E 135°27'3 2.7
2015-Mar-23 08:32N 34°32' E 135°24'0 0.1
2015-Mar-23 02:18N 34°31' E 135°24'0 0.5
2015-Mar-23 01:33N 34°32' E 135°24'2 1.8
2015-Mar-23 00:22N 34°33' E 135°26'0 0.1
2015-Mar-22 23:31N 34°33' E 135°26'2 1.9
2015-Mar-22 22:22N 34°32' E 135°25'0 0.1
2015-Mar-22 21:33N 34°32' E 135°24'2 2.3
2015-Mar-22 20:33N 34°33' E 135°27'0 0.0
2015-Mar-22 06:33N 34°33' E 135°27'1 0.5
2015-Mar-22 05:32N 34°33' E 135°26'0 0.1
2015-Mar-22 04:33N 34°33' E 135°26'3 2.7
2015-Mar-22 03:33N 34°33' E 135°23'3 3.1
2015-Mar-22 02:32N 34°33' E 135°27'0 0.0
2015-Mar-22 01:09N 34°33' E 135°27'0 0.0
2015-Mar-22 00:28N 34°33' E 135°27'0 0.0
2015-Mar-21 23:33N 34°33' E 135°27'0 0.0
2015-Mar-21 22:32N 34°33' E 135°27'0 0.0
2015-Mar-21 07:33N 34°33' E 135°27'6 5.6
2015-Mar-21 06:34N 34°39' E 135°26'0 0.5
2015-Mar-21 05:33N 34°39' E 135°26'4 3.7
2015-Mar-21 04:33N 34°36' E 135°23'3 3.1
2015-Mar-21 03:31N 34°33' E 135°25'3 2.7
2015-Mar-21 02:33N 34°31' E 135°24'1 1.0
2015-Mar-21 01:34N 34°32' E 135°24'1 1.4
2015-Mar-21 00:33N 34°33' E 135°24'2 2.3
2015-Mar-20 23:33N 34°33' E 135°27'0 0.0
2015-Mar-19 07:34N 34°33' E 135°27'4 3.5
2015-Mar-19 06:33N 34°31' E 135°23'0 0.4
2015-Mar-19 05:32N 34°31' E 135°23'3 2.8
2015-Mar-19 04:32N 34°33' E 135°26'3 3.2
2015-Mar-19 03:31N 34°35' E 135°22'4 3.4
2015-Mar-19 02:25N 34°33' E 135°27'0 0.0
2015-Mar-19 01:14N 34°33' E 135°27'2 2.8
2015-Mar-19 00:33N 34°33' E 135°24'1 1.4
2015-Mar-18 23:31N 34°33' E 135°26'0 0.5
2015-Mar-18 22:29N 34°33' E 135°27'0 0.0
2015-Mar-18 05:18N 34°33' E 135°27'0 0.0
2015-Mar-18 04:33N 34°33' E 135°27'1 0.8
2015-Mar-18 03:14N 34°33' E 135°25'0 0.0
2015-Mar-18 02:32N 34°33' E 135°25'2 2.1
2015-Mar-18 01:29N 34°31' E 135°23'1 1.6
2015-Mar-18 00:33N 34°33' E 135°23'2 2.0
2015-Mar-17 23:33N 34°31' E 135°24'2 2.0
2015-Mar-17 22:29N 34°33' E 135°23'3 3.3
2015-Mar-17 21:33N 34°33' E 135°27'0 0.1
2015-Mar-17 20:23N 34°33' E 135°27'0 0.0
2015-Mar-17 01:21N 34°33' E 135°27'5 6.4
2015-Mar-17 00:33N 34°33' E 135°20'  

Dump ship's entire track history